Kanorado, Kansas
Current Conditions -  °F | °C
As of 9:53 AM on Thursday 30 Oct 2014 (Local Time) from KITR Reporting Station
Clear Clear  
Wind Chill: 56°   Ceiling: Unl
Heat Index: 56°   Visibility: 10mi
Dew Point: 26°   Wind: 15mph
Humidity: 32%   Direction: 340°NNW
Pressure: 30.35"   Gusts: NA
Location:  39.33°N, 102.04°W
Report Text: KITR 301553Z AUTO 34013KT 10SM CLR 13/M03 A3035 RMK AO2 SLP258 T01331033
Loading
Personal Weather Stations






























Interactive Weather Map
Tropical Storm Tracking
New forecast layout! Learn more

10-Day Weather Forecast

Advertisements
Track Severe Weather on mobile